Time,TemperatureF,DewpointF,PressureIn,WindDirection,WindDirectionDegrees,WindSpeedMPH,WindSpeedGustMPH,Humidity,HourlyPrecipIn,Conditions,Clouds,dailyrainin,SoftwareType,DateUTC
2013-11-24 00:04:00,35.6,35.1,30.00,WNW,292,16.6,-999.0,98,-99.99,,,0.00,Acu-Link.com,2013-11-24 05:04:00,
2013-11-24 00:20:00,34.9,34.4,30.00,WNW,292,8.9,-999.0,98,-99.99,,,0.00,Acu-Link.com,2013-11-24 05:20:00,
2013-11-24 00:35:00,34.7,34.2,29.99,NW,315,19.7,-999.0,98,-99.99,,,0.00,Acu-Link.com,2013-11-24 05:35:00,
2013-11-24 00:50:00,34.0,33.5,30.01,NW,315,9.9,-999.0,98,-99.99,,,0.00,Acu-Link.com,2013-11-24 05:50:00,
2013-11-24 01:05:00,33.6,33.1,30.01,NW,315,15.0,-999.0,98,-99.99,,,0.00,Acu-Link.com,2013-11-24 06:05:00,
2013-11-24 01:21:00,33.4,32.9,30.01,North,0,11.4,-999.0,98,-99.99,,,0.00,Acu-Link.com,2013-11-24 06:21:00,
2013-11-24 01:36:00,32.9,32.4,30.03,West,270,14.0,-999.0,98,-99.99,,,0.00,Acu-Link.com,2013-11-24 06:36:00,
2013-11-24 01:51:00,32.7,32.2,30.04,NW,315,14.5,-999.0,98,-99.99,,,0.00,Acu-Link.com,2013-11-24 06:51:00,
2013-11-24 02:06:00,32.4,31.9,30.05,NNW,337,9.9,-999.0,98,-99.99,,,0.00,Acu-Link.com,2013-11-24 07:06:00,
2013-11-24 02:21:00,31.8,31.3,30.05,WNW,292,10.4,-999.0,98,-99.99,,,0.00,Acu-Link.com,2013-11-24 07:21:00,
2013-11-24 02:36:00,31.5,31.0,30.06,NW,315,11.9,-999.0,98,-99.99,,,0.00,Acu-Link.com,2013-11-24 07:36:00,
2013-11-24 02:51:00,30.7,30.2,30.07,NNE,22,10.4,-999.0,98,-99.99,,,0.00,Acu-Link.com,2013-11-24 07:51:00,
2013-11-24 03:07:00,30.2,29.7,30.07,NW,315,11.9,-999.0,98,-99.99,,,0.00,Acu-Link.com,2013-11-24 08:07:00,
2013-11-24 03:22:00,29.5,29.0,30.07,NNW,337,10.4,-999.0,98,-99.99,,,0.00,Acu-Link.com,2013-11-24 08:22:00,
2013-11-24 03:37:00,29.3,28.8,30.08,NW,315,15.5,-999.0,98,-99.99,,,0.00,Acu-Link.com,2013-11-24 08:37:00,
2013-11-24 03:52:00,29.3,28.8,30.08,WNW,292,19.7,-999.0,98,-99.99,,,0.00,Acu-Link.com,2013-11-24 08:52:00,
2013-11-24 04:07:00,28.8,28.3,30.09,ENE,67,14.0,-999.0,98,-99.99,,,0.00,Acu-Link.com,2013-11-24 09:07:00,
2013-11-24 04:22:00,28.8,28.3,30.10,North,0,13.0,-999.0,98,-99.99,,,0.00,Acu-Link.com,2013-11-24 09:22:00,
2013-11-24 04:37:00,28.4,27.9,30.10,West,270,12.5,-999.0,98,-99.99,,,0.00,Acu-Link.com,2013-11-24 09:37:00,
2013-11-24 04:52:00,28.0,27.5,30.11,NNW,337,10.9,-999.0,98,-99.99,,,0.00,Acu-Link.com,2013-11-24 09:52:00,
2013-11-24 05:08:00,27.5,27.0,30.13,West,270,10.4,-999.0,98,-99.99,,,0.00,Acu-Link.com,2013-11-24 10:08:00,
2013-11-24 05:23:00,28.0,27.5,30.14,NW,315,16.6,-999.0,98,-99.99,,,0.00,Acu-Link.com,2013-11-24 10:23:00,
2013-11-24 05:38:00,25.9,25.4,30.14,WSW,247,8.3,-999.0,98,-99.99,,,0.00,Acu-Link.com,2013-11-24 10:38:00,
2013-11-24 05:53:00,27.1,26.6,30.16,WNW,292,11.4,-999.0,98,-99.99,,,0.00,Acu-Link.com,2013-11-24 10:53:00,
2013-11-24 06:08:00,26.8,26.3,30.16,NNW,337,12.5,-999.0,98,-99.99,,,0.00,Acu-Link.com,2013-11-24 11:08:00,
2013-11-24 06:23:00,27.0,26.5,30.16,NNW,337,6.3,-999.0,98,-99.99,,,0.00,Acu-Link.com,2013-11-24 11:23:00,
2013-11-24 06:38:00,26.6,26.1,30.17,NNW,337,13.0,-999.0,98,-99.99,,,0.00,Acu-Link.com,2013-11-24 11:38:00,
2013-11-24 06:53:00,27.0,26.5,30.18,NNW,337,10.4,-999.0,98,-99.99,,,0.00,Acu-Link.com,2013-11-24 11:53:00,
2013-11-24 07:09:00,26.8,26.3,30.19,West,270,9.4,-999.0,98,-99.99,,,0.00,Acu-Link.com,2013-11-24 12:09:00,
2013-11-24 07:24:00,26.8,26.3,30.19,North,0,8.3,-999.0,98,-99.99,,,0.00,Acu-Link.com,2013-11-24 12:24:00,
2013-11-24 07:39:00,27.0,26.5,30.20,North,0,14.5,-999.0,98,-99.99,,,0.00,Acu-Link.com,2013-11-24 12:39:00,
2013-11-24 07:54:00,27.3,26.8,30.21,North,0,13.0,-999.0,98,-99.99,,,0.00,Acu-Link.com,2013-11-24 12:54:00,
2013-11-24 08:10:00,27.1,26.6,30.22,NE,45,19.7,-999.0,98,-99.99,,,0.00,Acu-Link.com,2013-11-24 13:10:00,
2013-11-24 08:25:00,28.0,27.5,30.21,NNW,337,17.6,-999.0,98,-99.99,,,0.00,Acu-Link.com,2013-11-24 13:25:00,
2013-11-24 08:40:00,28.4,27.9,30.22,NNW,337,12.5,-999.0,98,-99.99,,,0.00,Acu-Link.com,2013-11-24 13:40:00,
2013-11-24 08:55:00,28.2,27.7,30.23,NNW,337,10.9,-999.0,98,-99.99,,,0.00,Acu-Link.com,2013-11-24 13:55:00,
2013-11-24 09:11:00,28.8,28.3,30.23,North,0,11.9,-999.0,98,-99.99,,,0.00,Acu-Link.com,2013-11-24 14:11:00,
2013-11-24 09:26:00,29.3,28.8,30.24,NNW,337,19.1,-999.0,98,-99.99,,,0.00,Acu-Link.com,2013-11-24 14:26:00,
2013-11-24 09:41:00,29.8,29.3,30.24,North,0,22.2,-999.0,98,-99.99,,,0.00,Acu-Link.com,2013-11-24 14:41:00,
2013-11-24 09:56:00,30.0,29.5,30.24,WNW,292,12.5,-999.0,98,-99.99,,,0.00,Acu-Link.com,2013-11-24 14:56:00,
2013-11-24 10:11:00,30.4,29.9,30.24,WNW,292,10.9,-999.0,98,-99.99,,,0.00,Acu-Link.com,2013-11-24 15:11:00,
2013-11-24 10:26:00,31.1,30.6,30.25,WNW,292,19.1,-999.0,98,-99.99,,,0.00,Acu-Link.com,2013-11-24 15:26:00,
2013-11-24 10:42:00,30.9,30.4,30.24,WNW,292,13.5,-999.0,98,-99.99,,,0.00,Acu-Link.com,2013-11-24 15:42:00,
2013-11-24 10:57:00,31.8,31.3,30.23,West,270,14.0,-999.0,98,-99.99,,,0.00,Acu-Link.com,2013-11-24 15:57:00,
2013-11-24 11:12:00,31.3,30.8,30.22,NW,315,11.9,-999.0,98,-99.99,,,0.00,Acu-Link.com,2013-11-24 16:12:00,
2013-11-24 11:27:00,30.9,30.4,30.23,NW,315,18.6,-999.0,98,-99.99,,,0.00,Acu-Link.com,2013-11-24 16:27:00,
2013-11-24 11:42:00,31.5,31.0,30.23,NNW,337,17.1,-999.0,98,-99.99,,,0.00,Acu-Link.com,2013-11-24 16:42:00,
2013-11-24 11:58:00,30.6,30.1,30.23,NW,315,13.0,-999.0,98,-99.99,,,0.00,Acu-Link.com,2013-11-24 16:58:00,
2013-11-24 12:13:00,31.5,31.0,30.23,NW,315,12.5,-999.0,98,-99.99,,,0.00,Acu-Link.com,2013-11-24 17:13:00,
2013-11-24 12:28:00,31.3,30.8,30.23,NNW,337,12.5,-999.0,98,-99.99,,,0.00,Acu-Link.com,2013-11-24 17:28:00,
2013-11-24 12:43:00,32.5,32.0,30.22,NW,315,10.9,-999.0,98,-99.99,,,0.00,Acu-Link.com,2013-11-24 17:43:00,
2013-11-24 12:59:00,33.1,32.6,30.22,West,270,14.5,-999.0,98,-99.99,,,0.00,Acu-Link.com,2013-11-24 17:59:00,
2013-11-24 13:14:00,32.7,32.2,30.22,NW,315,19.1,-999.0,98,-99.99,,,0.00,Acu-Link.com,2013-11-24 18:14:00,
2013-11-24 13:29:00,33.6,33.1,30.22,NW,315,18.1,-999.0,98,-99.99,,,0.00,Acu-Link.com,2013-11-24 18:29:00,
2013-11-24 13:44:00,32.5,32.0,30.23,North,0,11.9,-999.0,98,-99.99,,,0.00,Acu-Link.com,2013-11-24 18:44:00,
2013-11-24 14:00:00,33.3,32.8,30.24,WNW,292,17.6,-999.0,98,-99.99,,,0.00,Acu-Link.com,2013-11-24 19:00:00,
2013-11-24 14:15:00,33.3,32.8,30.25,WNW,292,11.4,-999.0,98,-99.99,,,0.00,Acu-Link.com,2013-11-24 19:15:00,
2013-11-24 14:30:00,33.6,33.1,30.25,WNW,292,11.9,-999.0,98,-99.99,,,0.00,Acu-Link.com,2013-11-24 19:30:00,
2013-11-24 14:45:00,33.4,32.9,30.25,WNW,292,21.2,-999.0,98,-99.99,,,0.00,Acu-Link.com,2013-11-24 19:45:00,
2013-11-24 15:00:00,32.9,32.4,30.26,WNW,292,12.5,-999.0,98,-99.99,,,0.00,Acu-Link.com,2013-11-24 20:00:00,
2013-11-24 15:15:00,32.0,31.5,30.26,WNW,292,14.0,-999.0,98,-99.99,,,0.00,Acu-Link.com,2013-11-24 20:15:00,
2013-11-24 15:30:00,32.5,32.0,30.27,West,270,12.5,-999.0,98,-99.99,,,0.00,Acu-Link.com,2013-11-24 20:30:00,
2013-11-24 15:45:00,32.0,31.5,30.28,WNW,292,6.3,-999.0,98,-99.99,,,0.00,Acu-Link.com,2013-11-24 20:45:00,
2013-11-24 16:01:00,30.9,30.4,30.28,West,270,15.0,-999.0,98,-99.99,,,0.00,Acu-Link.com,2013-11-24 21:01:00,
2013-11-24 16:16:00,30.7,30.2,30.29,WNW,292,9.9,-999.0,98,-99.99,,,0.00,Acu-Link.com,2013-11-24 21:16:00,
2013-11-24 16:31:00,30.4,29.9,30.29,WNW,292,10.9,-999.0,98,-99.99,,,0.00,Acu-Link.com,2013-11-24 21:31:00,
2013-11-24 16:46:00,29.7,29.2,30.30,NW,315,8.3,-999.0,98,-99.99,,,0.00,Acu-Link.com,2013-11-24 21:46:00,
2013-11-24 17:01:00,29.3,28.8,30.31,WNW,292,9.9,-999.0,98,-99.99,,,0.00,Acu-Link.com,2013-11-24 22:01:00,
2013-11-24 17:17:00,29.3,28.8,30.32,NW,315,9.9,-999.0,98,-99.99,,,0.00,Acu-Link.com,2013-11-24 22:17:00,
2013-11-24 17:32:00,28.9,28.4,30.33,West,270,7.3,-999.0,98,-99.99,,,0.00,Acu-Link.com,2013-11-24 22:32:00,
2013-11-24 17:47:00,28.6,28.1,30.34,West,270,6.3,-999.0,98,-99.99,,,0.00,Acu-Link.com,2013-11-24 22:47:00,
2013-11-24 18:02:00,28.2,27.7,30.35,NE,45,4.7,-999.0,98,-99.99,,,0.00,Acu-Link.com,2013-11-24 23:02:00,
2013-11-24 18:17:00,28.0,27.5,30.35,NNE,22,3.2,-999.0,98,-99.99,,,0.00,Acu-Link.com,2013-11-24 23:17:00,
2013-11-24 18:32:00,27.9,27.4,30.36,West,270,4.7,-999.0,98,-99.99,,,0.00,Acu-Link.com,2013-11-24 23:32:00,
2013-11-24 18:47:00,27.7,27.2,30.37,West,270,6.3,-999.0,98,-99.99,,,0.00,Acu-Link.com,2013-11-24 23:47:00,
2013-11-24 19:03:00,27.0,26.5,30.38,NW,315,3.7,-999.0,98,-99.99,,,0.00,Acu-Link.com,2013-11-25 00:03:00,
2013-11-24 19:18:00,26.6,26.1,30.39,NW,315,5.3,-999.0,98,-99.99,,,0.00,Acu-Link.com,2013-11-25 00:18:00,
2013-11-24 19:33:00,26.8,26.3,30.39,West,270,2.2,-999.0,98,-99.99,,,0.00,Acu-Link.com,2013-11-25 00:33:00,
2013-11-24 19:48:00,25.7,25.2,30.40,West,270,2.2,-999.0,98,-99.99,,,0.00,Acu-Link.com,2013-11-25 00:48:00,
2013-11-24 20:03:00,25.2,24.7,30.40,WNW,292,4.7,-999.0,98,-99.99,,,0.00,Acu-Link.com,2013-11-25 01:03:00,
2013-11-24 20:18:00,25.7,25.2,30.40,NW,315,6.3,-999.0,98,-99.99,,,0.00,Acu-Link.com,2013-11-25 01:18:00,
2013-11-24 20:33:00,25.7,25.2,30.40,NW,315,5.3,-999.0,98,-99.99,,,0.00,Acu-Link.com,2013-11-25 01:33:00,
2013-11-24 20:48:00,25.5,25.0,30.40,SW,225,3.7,-999.0,98,-99.99,,,0.00,Acu-Link.com,2013-11-25 01:48:00,
2013-11-24 21:03:00,25.9,25.4,30.40,NW,315,4.2,-999.0,98,-99.99,,,0.00,Acu-Link.com,2013-11-25 02:03:00,
2013-11-24 21:19:00,25.5,25.0,30.41,West,270,2.7,-999.0,98,-99.99,,,0.00,Acu-Link.com,2013-11-25 02:19:00,
2013-11-24 21:34:00,25.2,24.7,30.41,NNW,337,3.2,-999.0,98,-99.99,,,0.00,Acu-Link.com,2013-11-25 02:34:00,
2013-11-24 21:49:00,25.0,24.5,30.42,NNW,337,4.7,-999.0,98,-99.99,,,0.00,Acu-Link.com,2013-11-25 02:49:00,
2013-11-24 22:04:00,24.8,24.3,30.42,NW,315,3.7,-999.0,98,-99.99,,,0.00,Acu-Link.com,2013-11-25 03:04:00,
2013-11-24 22:19:00,24.6,24.1,30.42,West,270,6.3,-999.0,98,-99.99,,,0.00,Acu-Link.com,2013-11-25 03:19:00,
2013-11-24 22:35:00,24.3,23.8,30.42,West,270,3.7,-999.0,98,-99.99,,,0.00,Acu-Link.com,2013-11-25 03:35:00,
2013-11-24 22:50:00,24.3,23.8,30.43,NW,315,4.2,-999.0,98,-99.99,,,0.00,Acu-Link.com,2013-11-25 03:50:00,
2013-11-24 23:05:00,24.3,23.8,30.44,NNW,337,3.7,-999.0,98,-99.99,,,0.00,Acu-Link.com,2013-11-25 04:05:00,
2013-11-24 23:20:00,23.9,23.4,30.44,WNW,292,3.2,-999.0,98,-99.99,,,0.00,Acu-Link.com,2013-11-25 04:20:00,
2013-11-24 23:36:00,24.1,23.6,30.44,NNW,337,2.2,-999.0,98,-99.99,,,0.00,Acu-Link.com,2013-11-25 04:36:00,
2013-11-24 23:51:00,23.7,23.2,30.43,WNW,292,4.7,-999.0,98,-99.99,,,0.00,Acu-Link.com,2013-11-25 04:51:00,